sensor_id;sensor_type;location;lat;lon;timestamp;pressure;altitude;pressure_sealevel;temperature;humidity
64886;BME280;51514;52.206;5.114;2023-03-26T00:01:33;100738.38;;;10.04;92.10
64886;BME280;51514;52.206;5.114;2023-03-26T00:04:01;100736.38;;;10.06;92.01
64886;BME280;51514;52.206;5.114;2023-03-26T00:06:29;100739.44;;;10.11;92.16
64886;BME280;51514;52.206;5.114;2023-03-26T00:08:56;100741.13;;;10.12;91.51
64886;BME280;51514;52.206;5.114;2023-03-26T00:11:24;100740.44;;;10.10;91.81
64886;BME280;51514;52.206;5.114;2023-03-26T00:13:50;100736.59;;;10.12;91.95
64886;BME280;51514;52.206;5.114;2023-03-26T00:16:18;100738.13;;;10.15;91.42
64886;BME280;51514;52.206;5.114;2023-03-26T00:18:44;100747.34;;;10.12;91.24
64886;BME280;51514;52.206;5.114;2023-03-26T00:21:15;100739.75;;;10.08;91.35
64886;BME280;51514;52.206;5.114;2023-03-26T00:23:42;100727.59;;;10.04;91.78
64886;BME280;51514;52.206;5.114;2023-03-26T00:26:08;100732.66;;;10.07;91.58
64886;BME280;51514;52.206;5.114;2023-03-26T00:28:36;100730.66;;;10.09;91.55
64886;BME280;51514;52.206;5.114;2023-03-26T00:31:03;100731.31;;;10.03;91.60
64886;BME280;51514;52.206;5.114;2023-03-26T00:33:29;100734.00;;;10.03;91.21
64886;BME280;51514;52.206;5.114;2023-03-26T00:35:57;100718.00;;;10.01;91.21
64886;BME280;51514;52.206;5.114;2023-03-26T00:38:26;100723.91;;;10.05;91.38
64886;BME280;51514;52.206;5.114;2023-03-26T00:40:52;100713.97;;;10.05;91.11
64886;BME280;51514;52.206;5.114;2023-03-26T00:43:18;100713.97;;;10.05;90.37
64886;BME280;51514;52.206;5.114;2023-03-26T00:45:51;100708.41;;;10.07;90.17
64886;BME280;51514;52.206;5.114;2023-03-26T00:48:19;100709.59;;;10.04;90.15
64886;BME280;51514;52.206;5.114;2023-03-26T00:50:45;100708.06;;;10.02;89.87
64886;BME280;51514;52.206;5.114;2023-03-26T00:53:12;100710.06;;;10.00;89.94
64886;BME280;51514;52.206;5.114;2023-03-26T00:55:39;100704.66;;;10.00;89.93
64886;BME280;51514;52.206;5.114;2023-03-26T00:58:05;100699.28;;;10.00;89.47
64886;BME280;51514;52.206;5.114;2023-03-26T01:00:41;100708.06;;;10.02;89.62
64886;BME280;51514;52.206;5.114;2023-03-26T01:03:11;100700.13;;;10.00;89.62
64886;BME280;51514;52.206;5.114;2023-03-26T01:05:42;100694.06;;;9.98;89.53
64886;BME280;51514;52.206;5.114;2023-03-26T01:10:54;100696.56;;;9.92;90.30
64886;BME280;51514;52.206;5.114;2023-03-26T01:13:28;100694.53;;;9.94;90.16
64886;BME280;51514;52.206;5.114;2023-03-26T01:15:54;100694.53;;;9.94;90.23
64886;BME280;51514;52.206;5.114;2023-03-26T01:18:23;100684.38;;;9.87;90.50
64886;BME280;51514;52.206;5.114;2023-03-26T01:20:59;100676.63;;;9.84;90.54
64886;BME280;51514;52.206;5.114;2023-03-26T01:23:44;100669.94;;;9.88;90.35
64886;BME280;51514;52.206;5.114;2023-03-26T01:27:04;100662.66;;;9.81;90.11
64886;BME280;51514;52.206;5.114;2023-03-26T01:32:02;100651.91;;;9.63;90.94
64886;BME280;51514;52.206;5.114;2023-03-26T01:34:54;100653.00;;;9.52;90.24
64886;BME280;51514;52.206;5.114;2023-03-26T01:37:32;100650.41;;;9.43;90.04
64886;BME280;51514;52.206;5.114;2023-03-26T01:40:34;100648.81;;;9.32;90.24
64886;BME280;51514;52.206;5.114;2023-03-26T01:45:37;100639.38;;;9.28;90.18
64886;BME280;51514;52.206;5.114;2023-03-26T01:48:04;100628.78;;;9.27;89.87
64886;BME280;51514;52.206;5.114;2023-03-26T01:50:30;100630.06;;;9.23;90.39
64886;BME280;51514;52.206;5.114;2023-03-26T01:52:55;100630.47;;;9.28;90.43
64886;BME280;51514;52.206;5.114;2023-03-26T01:55:25;100621.22;;;9.30;90.00
64886;BME280;51514;52.206;5.114;2023-03-26T02:00:32;100618.38;;;9.32;90.17
64886;BME280;51514;52.206;5.114;2023-03-26T02:03:02;100617.22;;;9.34;90.61
64886;BME280;51514;52.206;5.114;2023-03-26T02:05:49;100621.44;;;9.37;90.19
64886;BME280;51514;52.206;5.114;2023-03-26T02:08:23;100615.22;;;9.36;90.05
64886;BME280;51514;52.206;5.114;2023-03-26T02:10:57;100619.59;;;9.37;89.90
64886;BME280;51514;52.206;5.114;2023-03-26T02:13:24;100613.22;;;9.38;89.94
64886;BME280;51514;52.206;5.114;2023-03-26T02:15:58;100607.00;;;9.38;90.35
64886;BME280;51514;52.206;5.114;2023-03-26T02:18:25;100606.69;;;9.41;90.41
64886;BME280;51514;52.206;5.114;2023-03-26T02:21:00;100602.97;;;9.42;90.32
64886;BME280;51514;52.206;5.114;2023-03-26T02:23:25;100601.81;;;9.44;90.75
64886;BME280;51514;52.206;5.114;2023-03-26T02:25:53;100595.25;;;9.39;90.99
64886;BME280;51514;52.206;5.114;2023-03-26T02:28:19;100588.09;;;9.30;91.82
64886;BME280;51514;52.206;5.114;2023-03-26T02:30:44;100587.56;;;9.26;92.41
64886;BME280;51514;52.206;5.114;2023-03-26T02:33:11;100576.13;;;9.24;92.46
64886;BME280;51514;52.206;5.114;2023-03-26T02:35:40;100577.41;;;9.20;92.97
64886;BME280;51514;52.206;5.114;2023-03-26T02:38:05;100571.19;;;9.20;93.23
64886;BME280;51514;52.206;5.114;2023-03-26T02:40:30;100570.03;;;9.22;93.08
64886;BME280;51514;52.206;5.114;2023-03-26T02:42:56;100573.56;;;9.23;92.83
64886;BME280;51514;52.206;5.114;2023-03-26T02:45:22;100572.28;;;9.27;93.11
64886;BME280;51514;52.206;5.114;2023-03-26T02:47:48;100576.16;;;9.32;92.91
64886;BME280;51514;52.206;5.114;2023-03-26T02:50:15;100573.88;;;9.37;93.09
64886;BME280;51514;52.206;5.114;2023-03-26T02:52:40;100565.28;;;9.42;92.79
64886;BME280;51514;52.206;5.114;2023-03-26T02:55:07;100559.59;;;9.45;93.10
64886;BME280;51514;52.206;5.114;2023-03-26T02:57:32;100565.53;;;9.48;93.23
64886;BME280;51514;52.206;5.114;2023-03-26T02:59:58;100554.91;;;9.47;93.48
64886;BME280;51514;52.206;5.114;2023-03-26T03:02:24;100562.69;;;9.50;93.90
64886;BME280;51514;52.206;5.114;2023-03-26T03:04:49;100562.19;;;9.55;93.41
64886;BME280;51514;52.206;5.114;2023-03-26T03:07:16;100558.34;;;9.57;93.31
64886;BME280;51514;52.206;5.114;2023-03-26T03:09:41;100560.03;;;9.58;93.44
64886;BME280;51514;52.206;5.114;2023-03-26T03:12:07;100556.03;;;9.62;93.63
64886;BME280;51514;52.206;5.114;2023-03-26T03:14:32;100553.34;;;9.62;94.12
64886;BME280;51514;52.206;5.114;2023-03-26T03:16:58;100555.69;;;9.65;94.09
64886;BME280;51514;52.206;5.114;2023-03-26T03:19:23;100547.94;;;9.62;94.41
64886;BME280;51514;52.206;5.114;2023-03-26T03:21:48;100547.75;;;9.64;95.03
64886;BME280;51514;52.206;5.114;2023-03-26T03:24:14;100542.91;;;9.67;94.91
64886;BME280;51514;52.206;5.114;2023-03-26T03:26:42;100538.38;;;9.68;95.60
64886;BME280;51514;52.206;5.114;2023-03-26T03:29:09;100537.06;;;9.72;95.75
64886;BME280;51514;52.206;5.114;2023-03-26T03:31:36;100533.88;;;9.76;96.18
64886;BME280;51514;52.206;5.114;2023-03-26T03:34:01;100537.09;;;9.80;96.71
64886;BME280;51514;52.206;5.114;2023-03-26T03:36:26;100525.47;;;9.79;96.87
64886;BME280;51514;52.206;5.114;2023-03-26T03:38:52;100525.16;;;9.82;96.95
64886;BME280;51514;52.206;5.114;2023-03-26T03:41:17;100524.50;;;9.88;97.00
64886;BME280;51514;52.206;5.114;2023-03-26T03:43:43;100525.19;;;9.91;96.80
64886;BME280;51514;52.206;5.114;2023-03-26T03:46:09;100520.16;;;9.96;96.93
64886;BME280;51514;52.206;5.114;2023-03-26T03:48:34;100513.75;;;9.97;96.90
64886;BME280;51514;52.206;5.114;2023-03-26T03:51:02;100514.59;;;9.97;96.99
64886;BME280;51514;52.206;5.114;2023-03-26T03:53:27;100520.66;;;9.99;97.17
64886;BME280;51514;52.206;5.114;2023-03-26T03:55:56;100516.81;;;10.02;97.12
64886;BME280;51514;52.206;5.114;2023-03-26T03:58:22;100516.50;;;10.05;97.22
64886;BME280;51514;52.206;5.114;2023-03-26T04:00:49;100513.81;;;10.05;97.09
64886;BME280;51514;52.206;5.114;2023-03-26T04:03:16;100518.50;;;10.03;97.08
64886;BME280;51514;52.206;5.114;2023-03-26T04:05:43;100508.72;;;10.02;97.36
64886;BME280;51514;52.206;5.114;2023-03-26T04:08:16;100510.44;;;10.03;97.37
64886;BME280;51514;52.206;5.114;2023-03-26T04:10:42;100507.03;;;10.01;97.35
64886;BME280;51514;52.206;5.114;2023-03-26T04:13:09;100504.34;;;10.01;97.36
64886;BME280;51514;52.206;5.114;2023-03-26T04:15:35;100502.50;;;10.01;97.09
64886;BME280;51514;52.206;5.114;2023-03-26T04:18:01;100497.28;;;10.00;97.42
64886;BME280;51514;52.206;5.114;2023-03-26T04:20:26;100493.59;;;10.01;97.29
64886;BME280;51514;52.206;5.114;2023-03-26T04:22:51;100489.72;;;10.03;97.29
64886;BME280;51514;52.206;5.114;2023-03-26T04:25:17;100488.56;;;10.06;97.04
64886;BME280;51514;52.206;5.114;2023-03-26T04:27:43;100484.50;;;10.10;96.51
64886;BME280;51514;52.206;5.114;2023-03-26T04:30:11;100479.66;;;10.13;96.48
64886;BME280;51514;52.206;5.114;2023-03-26T04:32:39;100468.03;;;10.13;95.84
64886;BME280;51514;52.206;5.114;2023-03-26T04:35:10;100473.56;;;10.11;95.70
64886;BME280;51514;52.206;5.114;2023-03-26T04:37:38;100466.34;;;10.12;95.87
64886;BME280;51514;52.206;5.114;2023-03-26T04:40:07;100470.03;;;10.11;95.63
64886;BME280;51514;52.206;5.114;2023-03-26T04:42:35;100458.56;;;10.09;95.69
64886;BME280;51514;52.206;5.114;2023-03-26T04:45:03;100458.41;;;10.10;95.79
64886;BME280;51514;52.206;5.114;2023-03-26T04:47:28;100453.56;;;10.14;95.61
64886;BME280;51514;52.206;5.114;2023-03-26T04:49:54;100449.84;;;10.15;95.62
64886;BME280;51514;52.206;5.114;2023-03-26T04:52:19;100445.31;;;10.15;95.54
64886;BME280;51514;52.206;5.114;2023-03-26T04:54:45;100437.03;;;10.17;95.42
64886;BME280;51514;52.206;5.114;2023-03-26T04:59:48;100425.97;;;10.20;95.01
64886;BME280;51514;52.206;5.114;2023-03-26T05:02:14;100425.97;;;10.20;95.32
64886;BME280;51514;52.206;5.114;2023-03-26T05:04:40;100428.50;;;10.21;94.90
64886;BME280;51514;52.206;5.114;2023-03-26T05:07:09;100427.66;;;10.21;94.80
64886;BME280;51514;52.206;5.114;2023-03-26T05:09:35;100422.25;;;10.21;94.50
64886;BME280;51514;52.206;5.114;2023-03-26T05:12:00;100422.25;;;10.21;94.66
64886;BME280;51514;52.206;5.114;2023-03-26T05:14:26;100418.72;;;10.20;94.82
64886;BME280;51514;52.206;5.114;2023-03-26T05:16:51;100428.34;;;10.23;94.71
64886;BME280;51514;52.206;5.114;2023-03-26T05:19:20;100420.09;;;10.24;94.72
64886;BME280;51514;52.206;5.114;2023-03-26T05:21:45;100419.94;;;10.26;94.15
64886;BME280;51514;52.206;5.114;2023-03-26T05:24:10;100412.69;;;10.27;94.12
64886;BME280;51514;52.206;5.114;2023-03-26T05:26:36;100409.16;;;10.26;93.91
64886;BME280;51514;52.206;5.114;2023-03-26T05:29:02;100410.47;;;10.22;94.01
64886;BME280;51514;52.206;5.114;2023-03-26T05:31:29;100406.41;;;10.18;94.39
64886;BME280;51514;52.206;5.114;2023-03-26T05:33:57;100402.69;;;10.11;94.71
64886;BME280;51514;52.206;5.114;2023-03-26T05:36:24;100398.31;;;10.10;94.85
64886;BME280;51514;52.206;5.114;2023-03-26T05:38:50;100394.94;;;10.08;94.66
64886;BME280;51514;52.206;5.114;2023-03-26T05:41:16;100389.06;;;10.04;94.60
64886;BME280;51514;52.206;5.114;2023-03-26T05:43:42;100383.16;;;10.01;94.58
64886;BME280;51514;52.206;5.114;2023-03-26T05:46:09;100394.25;;;9.98;94.19
64886;BME280;51514;52.206;5.114;2023-03-26T05:48:34;100388.69;;;9.91;94.79
64886;BME280;51514;52.206;5.114;2023-03-26T05:51:02;100388.50;;;9.84;95.21
64886;BME280;51514;52.206;5.114;2023-03-26T05:53:27;100379.25;;;9.79;95.77
64886;BME280;51514;52.206;5.114;2023-03-26T05:55:53;100381.78;;;9.80;95.94
64886;BME280;51514;52.206;5.114;2023-03-26T05:58:26;100372.53;;;9.83;96.23
64886;BME280;51514;52.206;5.114;2023-03-26T06:00:55;100369.66;;;9.84;96.66
64886;BME280;51514;52.206;5.114;2023-03-26T06:03:22;100377.06;;;9.91;95.73
64886;BME280;51514;52.206;5.114;2023-03-26T06:05:48;100375.91;;;9.93;95.57
64886;BME280;51514;52.206;5.114;2023-03-26T06:08:14;100368.84;;;9.92;95.61
64886;BME280;51514;52.206;5.114;2023-03-26T06:10:40;100365.97;;;9.94;95.83
64886;BME280;51514;52.206;5.114;2023-03-26T06:13:05;100358.56;;;9.96;96.32
64886;BME280;51514;52.206;5.114;2023-03-26T06:15:31;100364.47;;;9.99;95.94
64886;BME280;51514;52.206;5.114;2023-03-26T06:17:56;100354.84;;;9.97;96.11
64886;BME280;51514;52.206;5.114;2023-03-26T06:20:21;100345.78;;;9.98;96.05
64886;BME280;51514;52.206;5.114;2023-03-26T06:22:47;100338.69;;;9.97;96.09
64886;BME280;51514;52.206;5.114;2023-03-26T06:25:12;100340.22;;;9.91;96.00
64886;BME280;51514;52.206;5.114;2023-03-26T06:27:37;100344.41;;;9.85;95.96
64886;BME280;51514;52.206;5.114;2023-03-26T06:30:03;100342.22;;;9.81;96.25
64886;BME280;51514;52.206;5.114;2023-03-26T06:32:29;100344.06;;;9.80;96.74
64886;BME280;51514;52.206;5.114;2023-03-26T06:34:54;100345.25;;;9.78;96.58
64886;BME280;51514;52.206;5.114;2023-03-26T06:37:19;100348.09;;;9.76;96.76
64886;BME280;51514;52.206;5.114;2023-03-26T06:39:45;100345.06;;;9.71;96.69
64886;BME280;51514;52.206;5.114;2023-03-26T06:42:10;100338.47;;;9.58;97.51
64886;BME280;51514;52.206;5.114;2023-03-26T06:44:35;100341.31;;;9.40;99.49
64886;BME280;51514;52.206;5.114;2023-03-26T06:47:01;100346.31;;;9.35;99.81
64886;BME280;51514;52.206;5.114;2023-03-26T06:49:26;100346.00;;;9.38;99.48
64886;BME280;51514;52.206;5.114;2023-03-26T06:51:51;100355.41;;;9.42;99.36
64886;BME280;51514;52.206;5.114;2023-03-26T06:54:17;100360.78;;;9.42;99.87
64886;BME280;51514;52.206;5.114;2023-03-26T06:56:42;100359.78;;;9.43;100.00
64886;BME280;51514;52.206;5.114;2023-03-26T06:59:09;100353.06;;;9.39;100.00
64886;BME280;51514;52.206;5.114;2023-03-26T07:01:34;100351.53;;;9.36;100.00
64886;BME280;51514;52.206;5.114;2023-03-26T07:03:59;100354.88;;;9.30;100.00
64886;BME280;51514;52.206;5.114;2023-03-26T07:06:25;100354.53;;;9.25;100.00
64886;BME280;51514;52.206;5.114;2023-03-26T07:08:50;100356.00;;;9.20;100.00
64886;BME280;51514;52.206;5.114;2023-03-26T07:11:16;100345.19;;;9.03;100.00
64886;BME280;51514;52.206;5.114;2023-03-26T07:13:43;100345.88;;;9.05;100.00
64886;BME280;51514;52.206;5.114;2023-03-26T07:16:10;100349.41;;;9.06;100.00
64886;BME280;51514;52.206;5.114;2023-03-26T07:18:35;100344.50;;;9.01;100.00
64886;BME280;51514;52.206;5.114;2023-03-26T07:21:00;100350.19;;;8.98;100.00
64886;BME280;51514;52.206;5.114;2023-03-26T07:23:26;100345.88;;;9.05;100.00
64886;BME280;51514;52.206;5.114;2023-03-26T07:25:52;100347.91;;;9.11;100.00
64886;BME280;51514;52.206;5.114;2023-03-26T07:28:41;100347.91;;;9.11;100.00
64886;BME280;51514;52.206;5.114;2023-03-26T07:31:44;100350.94;;;9.08;100.00
64886;BME280;51514;52.206;5.114;2023-03-26T07:34:32;100346.56;;;9.07;100.00
64886;BME280;51514;52.206;5.114;2023-03-26T07:39:43;100341.19;;;9.07;100.00
64886;BME280;51514;52.206;5.114;2023-03-26T07:44:52;100337.56;;;8.91;100.00
64886;BME280;51514;52.206;5.114;2023-03-26T07:47:27;100342.38;;;8.79;100.00
64886;BME280;51514;52.206;5.114;2023-03-26T07:49:54;100343.16;;;8.71;100.00
64886;BME280;51514;52.206;5.114;2023-03-26T07:52:22;100344.72;;;8.74;100.00
64886;BME280;51514;52.206;5.114;2023-03-26T07:54:48;100332.25;;;8.73;100.00
64886;BME280;51514;52.206;5.114;2023-03-26T08:00:23;100342.34;;;8.71;100.00
64886;BME280;51514;52.206;5.114;2023-03-26T08:03:00;100334.56;;;8.68;100.00
64886;BME280;51514;52.206;5.114;2023-03-26T08:05:32;100335.81;;;8.73;100.00
64886;BME280;51514;52.206;5.114;2023-03-26T08:10:59;100331.63;;;8.79;100.00
64886;BME280;51514;52.206;5.114;2023-03-26T08:16:30;100340.94;;;8.93;100.00
64886;BME280;51514;52.206;5.114;2023-03-26T08:21:54;100332.41;;;8.97;100.00
64886;BME280;51514;52.206;5.114;2023-03-26T08:24:56;100329.38;;;9.00;100.00
64886;BME280;51514;52.206;5.114;2023-03-26T08:27:42;100335.56;;;8.93;100.00
64886;BME280;51514;52.206;5.114;2023-03-26T08:30:18;100330.66;;;8.88;100.00
64886;BME280;51514;52.206;5.114;2023-03-26T08:32:51;100327.63;;;8.83;100.00
64886;BME280;51514;52.206;5.114;2023-03-26T08:35:18;100333.53;;;8.87;100.00
64886;BME280;51514;52.206;5.114;2023-03-26T08:37:43;100332.03;;;8.92;100.00
64886;BME280;51514;52.206;5.114;2023-03-26T08:40:10;100334.56;;;8.94;100.00
64886;BME280;51514;52.206;5.114;2023-03-26T08:42:56;100333.72;;;8.93;100.00
64886;BME280;51514;52.206;5.114;2023-03-26T08:48:55;100340.38;;;8.81;100.00
64886;BME280;51514;52.206;5.114;2023-03-26T08:57:38;100343.44;;;8.86;100.00
64886;BME280;51514;52.206;5.114;2023-03-26T09:22:18;100351.00;;;8.91;99.40
64886;BME280;51514;52.206;5.114;2023-03-26T09:36:18;100339.81;;;9.03;100.00
64886;BME280;51514;52.206;5.114;2023-03-26T09:41:41;100352.22;;;8.96;99.43
64886;BME280;51514;52.206;5.114;2023-03-26T10:00:30;100363.75;;;8.89;98.94
64886;BME280;51514;52.206;5.114;2023-03-26T10:05:54;100371.94;;;9.13;99.63
64886;BME280;51514;52.206;5.114;2023-03-26T10:10:54;100375.03;;;9.18;98.21
64886;BME280;51514;52.206;5.114;2023-03-26T10:19:11;100380.59;;;9.33;96.94
64886;BME280;51514;52.206;5.114;2023-03-26T10:22:42;100379.91;;;9.23;95.05
64886;BME280;51514;52.206;5.114;2023-03-26T10:28:28;100384.25;;;9.15;95.20
64886;BME280;51514;52.206;5.114;2023-03-26T10:34:10;100384.28;;;9.32;96.38
64886;BME280;51514;52.206;5.114;2023-03-26T10:36:55;100388.03;;;9.39;96.20
64886;BME280;51514;52.206;5.114;2023-03-26T10:39:33;100390.22;;;9.43;95.18
64886;BME280;51514;52.206;5.114;2023-03-26T10:42:18;100395.47;;;9.45;94.35
64886;BME280;51514;52.206;5.114;2023-03-26T10:50:25;100393.75;;;9.36;93.36
64886;BME280;51514;52.206;5.114;2023-03-26T10:53:06;100397.41;;;9.27;92.15
64886;BME280;51514;52.206;5.114;2023-03-26T10:55:37;100406.44;;;9.18;91.25
64886;BME280;51514;52.206;5.114;2023-03-26T11:00:42;100409.28;;;9.16;92.46
64886;BME280;51514;52.206;5.114;2023-03-26T11:09:20;100416.03;;;9.20;92.85
64886;BME280;51514;52.206;5.114;2023-03-26T11:14:52;100418.91;;;9.19;91.21
64886;BME280;51514;52.206;5.114;2023-03-26T11:20:14;100424.56;;;9.07;89.79
64886;BME280;51514;52.206;5.114;2023-03-26T11:23:33;100420.06;;;9.16;91.29
64886;BME280;51514;52.206;5.114;2023-03-26T11:28:36;100430.81;;;9.16;89.29
64886;BME280;51514;52.206;5.114;2023-03-26T11:34:02;100442.25;;;9.18;88.41
64886;BME280;51514;52.206;5.114;2023-03-26T11:36:34;100439.19;;;9.13;86.42
64886;BME280;51514;52.206;5.114;2023-03-26T11:39:05;100442.75;;;9.22;87.75
64886;BME280;51514;52.206;5.114;2023-03-26T11:41:34;100440.94;;;9.30;88.22
64886;BME280;51514;52.206;5.114;2023-03-26T11:44:02;100444.84;;;9.28;86.41
64886;BME280;51514;52.206;5.114;2023-03-26T11:46:41;100446.53;;;9.29;84.10
64886;BME280;51514;52.206;5.114;2023-03-26T11:49:09;100438.34;;;9.12;81.97
64886;BME280;51514;52.206;5.114;2023-03-26T11:51:38;100444.31;;;9.24;85.45
64886;BME280;51514;52.206;5.114;2023-03-26T11:54:06;100447.44;;;9.45;85.45
64886;BME280;51514;52.206;5.114;2023-03-26T11:56:48;100453.09;;;9.68;85.10
64886;BME280;51514;52.206;5.114;2023-03-26T12:04:36;100454.16;;;9.92;81.29
64886;BME280;51514;52.206;5.114;2023-03-26T12:07:31;100463.09;;;10.00;80.39
64886;BME280;51514;52.206;5.114;2023-03-26T12:10:05;100452.91;;;10.20;83.16
64886;BME280;51514;52.206;5.114;2023-03-26T12:12:36;100457.81;;;10.33;81.16
64886;BME280;51514;52.206;5.114;2023-03-26T12:15:03;100458.34;;;10.36;79.96
64886;BME280;51514;52.206;5.114;2023-03-26T12:17:32;100459.00;;;10.46;81.01
64886;BME280;51514;52.206;5.114;2023-03-26T12:19:59;100464.25;;;10.56;80.70
64886;BME280;51514;52.206;5.114;2023-03-26T12:22:26;100467.94;;;10.63;79.52
64886;BME280;51514;52.206;5.114;2023-03-26T12:25:22;100473.16;;;10.65;79.20
64886;BME280;51514;52.206;5.114;2023-03-26T12:27:51;100464.06;;;10.66;77.09
64886;BME280;51514;52.206;5.114;2023-03-26T12:30:26;100477.88;;;10.63;77.73
64886;BME280;51514;52.206;5.114;2023-03-26T12:32:56;100478.41;;;10.66;77.72
64886;BME280;51514;52.206;5.114;2023-03-26T12:35:26;100477.88;;;10.63;75.19
64886;BME280;51514;52.206;5.114;2023-03-26T12:37:55;100483.13;;;10.48;74.90
64886;BME280;51514;52.206;5.114;2023-03-26T12:40:37;100486.28;;;10.43;75.67
64886;BME280;51514;52.206;5.114;2023-03-26T12:43:42;100490.84;;;10.43;74.55
64886;BME280;51514;52.206;5.114;2023-03-26T12:46:47;100487.97;;;10.44;76.03
64886;BME280;51514;52.206;5.114;2023-03-26T12:49:12;100497.44;;;10.48;76.30
64886;BME280;51514;52.206;5.114;2023-03-26T12:51:47;100488.81;;;10.45;73.39
64886;BME280;51514;52.206;5.114;2023-03-26T13:02:47;100501.75;;;10.25;71.57
64886;BME280;51514;52.206;5.114;2023-03-26T13:10:49;100510.53;;;10.27;71.24
64886;BME280;51514;52.206;5.114;2023-03-26T13:13:43;100520.28;;;10.28;71.41
64886;BME280;51514;52.206;5.114;2023-03-26T13:16:15;100513.72;;;10.31;71.11
64886;BME280;51514;52.206;5.114;2023-03-26T13:18:53;100520.63;;;10.25;70.53
64886;BME280;51514;52.206;5.114;2023-03-26T13:27:29;100534.75;;;10.19;70.64
64886;BME280;51514;52.206;5.114;2023-03-26T13:29:59;100533.00;;;10.10;71.04
64886;BME280;51514;52.206;5.114;2023-03-26T13:32:33;100532.69;;;10.13;71.22
64886;BME280;51514;52.206;5.114;2023-03-26T13:46:15;100544.72;;;9.93;66.62
64886;BME280;51514;52.206;5.114;2023-03-26T13:48:57;100549.75;;;9.87;68.25
64886;BME280;51514;52.206;5.114;2023-03-26T13:51:29;100554.16;;;9.97;69.72
64886;BME280;51514;52.206;5.114;2023-03-26T13:54:12;100559.69;;;9.95;67.63
64886;BME280;51514;52.206;5.114;2023-03-26T13:56:48;100561.91;;;10.00;67.14
64886;BME280;51514;52.206;5.114;2023-03-26T13:59:29;100559.22;;;10.00;66.97
64886;BME280;51514;52.206;5.114;2023-03-26T14:02:02;100560.53;;;9.96;65.52
64886;BME280;51514;52.206;5.114;2023-03-26T14:04:38;100568.44;;;9.89;65.58
64886;BME280;51514;52.206;5.114;2023-03-26T14:09:41;100571.94;;;9.81;66.13
64886;BME280;51514;52.206;5.114;2023-03-26T14:14:53;100577.53;;;9.88;65.81
64886;BME280;51514;52.206;5.114;2023-03-26T14:17:37;100590.09;;;9.79;65.04
64886;BME280;51514;52.206;5.114;2023-03-26T14:22:55;100590.78;;;9.81;67.24
64886;BME280;51514;52.206;5.114;2023-03-26T14:26:05;100595.84;;;9.84;66.97
64886;BME280;51514;52.206;5.114;2023-03-26T14:37:41;100619.72;;;9.53;64.77
64886;BME280;51514;52.206;5.114;2023-03-26T14:53:37;100639.34;;;9.46;63.71
64886;BME280;51514;52.206;5.114;2023-03-26T14:56:19;100646.41;;;9.47;61.80
64886;BME280;51514;52.206;5.114;2023-03-26T15:01:34;100649.22;;;9.63;64.72
64886;BME280;51514;52.206;5.114;2023-03-26T15:21:14;100676.03;;;9.11;62.64
64886;BME280;51514;52.206;5.114;2023-03-26T15:41:09;100718.00;;;9.04;64.03
64886;BME280;51514;52.206;5.114;2023-03-26T15:46:51;100732.84;;;9.08;63.83
64886;BME280;51514;52.206;5.114;2023-03-26T15:49:38;100726.66;;;8.98;61.56
64886;BME280;51514;52.206;5.114;2023-03-26T15:52:24;100740.16;;;8.89;59.68
64886;BME280;51514;52.206;5.114;2023-03-26T15:57:45;100750.47;;;8.66;59.72
64886;BME280;51514;52.206;5.114;2023-03-26T16:09:02;100776.53;;;8.56;57.77
64886;BME280;51514;52.206;5.114;2023-03-26T16:11:49;100782.22;;;8.53;57.70
64886;BME280;51514;52.206;5.114;2023-03-26T16:14:23;100787.19;;;8.48;57.61
64886;BME280;51514;52.206;5.114;2023-03-26T16:17:11;100800.63;;;8.48;58.10
64886;BME280;51514;52.206;5.114;2023-03-26T16:22:08;100803.34;;;8.38;57.51
64886;BME280;51514;52.206;5.114;2023-03-26T16:24:44;100800.41;;;8.31;58.27
64886;BME280;51514;52.206;5.114;2023-03-26T16:30:05;100818.56;;;8.47;63.18
64886;BME280;51514;52.206;5.114;2023-03-26T16:32:40;100831.44;;;8.53;62.54
64886;BME280;51514;52.206;5.114;2023-03-26T16:40:35;100844.22;;;8.32;62.02
64886;BME280;51514;52.206;5.114;2023-03-26T16:43:29;100859.47;;;8.22;60.38
64886;BME280;51514;52.206;5.114;2023-03-26T16:51:32;100874.31;;;8.16;60.15
64886;BME280;51514;52.206;5.114;2023-03-26T16:56:51;100880.53;;;8.07;57.98
64886;BME280;51514;52.206;5.114;2023-03-26T17:02:20;100893.84;;;7.99;58.29
64886;BME280;51514;52.206;5.114;2023-03-26T17:04:50;100899.88;;;7.91;59.81
64886;BME280;51514;52.206;5.114;2023-03-26T17:07:37;100904.00;;;7.86;59.66
64886;BME280;51514;52.206;5.114;2023-03-26T17:20:39;100928.16;;;7.95;58.86
64886;BME280;51514;52.206;5.114;2023-03-26T17:26:20;100933.25;;;7.89;60.09
64886;BME280;51514;52.206;5.114;2023-03-26T17:29:09;100938.75;;;7.87;61.60
64886;BME280;51514;52.206;5.114;2023-03-26T17:42:33;100953.53;;;7.62;57.77
64886;BME280;51514;52.206;5.114;2023-03-26T17:45:07;100961.72;;;7.61;56.92
64886;BME280;51514;52.206;5.114;2023-03-26T17:50:26;100968.00;;;7.41;56.57
64886;BME280;51514;52.206;5.114;2023-03-26T17:53:00;100973.75;;;7.36;55.98
64886;BME280;51514;52.206;5.114;2023-03-26T17:55:28;100979.97;;;7.37;56.37
64886;BME280;51514;52.206;5.114;2023-03-26T17:58:00;100981.09;;;7.34;56.80
64886;BME280;51514;52.206;5.114;2023-03-26T18:00:44;100992.34;;;7.28;56.68
64886;BME280;51514;52.206;5.114;2023-03-26T18:03:26;101005.50;;;7.31;56.94
64886;BME280;51514;52.206;5.114;2023-03-26T18:06:04;101003.56;;;7.33;57.46
64886;BME280;51514;52.206;5.114;2023-03-26T18:08:40;101009.03;;;7.31;56.33
64886;BME280;51514;52.206;5.114;2023-03-26T18:16:32;101024.59;;;7.38;56.49
64886;BME280;51514;52.206;5.114;2023-03-26T18:19:03;101026.88;;;7.42;58.71
64886;BME280;51514;52.206;5.114;2023-03-26T18:21:42;101043.81;;;7.43;59.65
64886;BME280;51514;52.206;5.114;2023-03-26T18:24:13;101051.75;;;7.44;61.64
64886;BME280;51514;52.206;5.114;2023-03-26T18:27:27;101061.03;;;7.40;62.08